Station: Busselton Airport  

  Atmospheric Gas Attenuation - ITU Rec 676-11   ----------------- dB/100km -----------------
Date Time Temp RH % AH g/m3 Dew Point Wind Direction Speed kph Gust kph Barometer mB Rainfall Since 9am 24GHz 47GHz 76GHz 122GHz 134GHz 241GHz
04/09 06:30 12.9 69 7.78 7.4 19 32 1013.5 1 17.9 24.8 37.0 96.9 88.8 304.6
04/09 06:20 13.1 68 7.76 7.3 20 30 1013.5 1 17.8 24.8 36.8 96.5 88.3 303.0
04/09 06:10 13.4 70 8.14 8 20 28 1013.5 1 18.6 25.3 38.2 100.1 92.9 319.1
04/09 06:00 13.6 73 8.59 8.9 22 33 1013.6 1 19.6 25.9 39.9 104.6 98.6 339.0
04/09 05:50 13.3 77 8.9 9.4 19 28 1013.3 1 20.3 26.5 41.3 108.4 103.1 354.7
04/09 05:40 13.1 78 8.9 9.4 17 22 1013 1 20.3 26.6 41.4 108.6 103.3 355.5
04/09 05:30 13.2 78 8.96 9.5 17 24 1012.7 1 20.4 26.6 41.5 109.1 103.9 357.8
04/09 05:20 13.3 78 9.01 9.5 15 24 1012.6 1 20.5 26.7 41.7 109.5 104.5 359.7
04/09 05:10 13.5 76 8.89 9.4 13 19 1012.5 1 20.2 26.4 41.1 107.9 102.6 353.1
04/09 05:00 13.5 73 8.54 8.8 17 26 1012.3 1 19.5 25.8 39.7 104.1 97.9 336.7
04/09 04:50 13.7 72 8.53 8.7 17 24 1012.2 1 19.4 25.8 39.5 103.7 97.5 335.4
04/09 04:40 13.5 71 8.31 8.4 15 19 1012 1 19.0 25.5 38.7 101.6 94.9 326.1
04/09 04:30 13.4 72 8.37 8.5 17 22 1011.8 1 19.1 25.6 39.0 102.4 95.8 329.2
04/09 04:20 13.4 71 8.25 8.3 20 28 1011.6 1 18.9 25.4 38.5 101.1 94.2 323.6
04/09 04:10 13.3 71 8.2 8.2 19 28 1011.5 1 18.8 25.3 38.4 100.7 93.6 321.7
04/09 04:00 13.3 69 7.97 7.7 22 32 1011.4 1 18.3 25.0 37.5 98.2 90.6 311.2
04/09 03:50 13.2 68 7.81 7.4 22 28 1011.5 1 17.9 24.7 36.9 96.7 88.7 304.3
04/09 03:40 13.6 67 7.89 7.6 24 30 1011.5 1 18.1 24.8 37.0 97.0 89.2 306.4
04/09 03:30 13.7 68 8.05 7.9 26 33 1011.5 1 18.4 25.0 37.6 98.6 91.2 313.3
04/09 03:20 13.8 72 8.58 8.8 24 33 1011.5 1 19.5 25.8 39.6 104.1 98.0 337.1
04/09 03:10 13.6 77 9.06 9.6 20 28 1011.5 1 20.6 26.6 41.7 109.5 104.6 360.4
04/09 03:00 13.6 76 8.94 9.5 24 30 1011.4 1 20.3 26.4 41.2 108.2 103.0 354.7
04/09 02:50 14 74 8.93 9.4 30 39 1011.5 1 20.3 26.3 40.9 107.5 102.4 352.4
04/09 02:40 14.4 73 9.02 9.6 30 41 1011.6 1 20.5 26.3 41.1 108.0 103.0 354.9
04/09 02:30 14.1 74 8.98 9.5 22 32 1011.4 1 20.4 26.4 41.1 107.9 102.9 354.3
04/09 02:20 14.2 75 9.16 9.8 26 32 1011.5 1 20.8 26.6 41.8 109.8 105.2 362.3
04/09 02:10 14.1 79 9.59 10.5 26 41 1011.4 1 21.7 27.4 43.6 114.6 111.1 383.0
04/09 02:00 13.7 85 10.07 11.2 24 35 1011.3 1 22.7 28.3 45.8 120.6 118.3 408.1
04/09 01:50 13.4 91 10.58 12 20 33 1011.3 1 23.9 29.3 48.2 126.9 126.0 434.9
04/09 01:40 13.7 87 10.3 11.6 22 35 1011.3 1 23.2 28.7 46.8 123.2 121.5 419.4
04/09 01:30 13.5 85 9.94 11 22 28 1011.2 1 22.5 28.1 45.4 119.4 116.8 402.8
04/09 01:20 13.3 85 9.82 10.8 17 20 1011.2 1 22.2 28.0 45.0 118.3 115.4 398.0
04/09 01:10 13.6 86 10.12 11.3 24 28 1011.1 1 22.9 28.4 46.1 121.3 119.1 411.0
04/09 01:00 13.8 85 10.13 11.3 32 52 1011.3 1 22.9 28.4 46.0 121.1 119.0 410.5
04/09 00:50 14.2 81 9.89 11 26 35 1011.1 0.8 22.3 27.8 44.8 117.8 115.0 396.8
04/09 00:40 14.3 79 9.71 10.7 28 43 1011.1 0.8 21.9 27.5 44.0 115.6 112.4 387.7
04/09 00:30 14.2 79 9.65 10.6 26 37 1011.2 0.8 21.8 27.4 43.8 115.1 111.8 385.3
04/09 00:20 13.9 81 9.71 10.7 22 26 1011.1 0.8 22.0 27.6 44.2 116.2 113.0 389.7
04/09 00:10 13.8 85 10.13 11.3 28 39 1011.1 0.8 22.9 28.4 46.0 121.1 119.0 410.5
04/09 00:00 13.5 89 10.41 11.7 32 48 1011.3 0.8 23.5 28.9 47.4 124.8 123.4 425.9
03/09 23:50 13.7 88 10.42 11.7 30 35 1011.5 0.8 23.5 28.9 47.3 124.6 123.2 425.3
03/09 23:40 15.7 71 9.5 10.5 35 50 1011.3 0.6 21.4 26.7 42.3 111.3 107.6 371.1
03/09 23:30 16 67 9.13 9.9 28 44 1011.1 0.4 20.6 26.0 40.7 106.9 102.3 352.6
03/09 23:20 16.2 66 9.1 9.8 33 43 1011.1 0.4 20.5 25.9 40.5 106.3 101.7 350.3
03/09 23:10 16 68 9.26 10.1 33 48 1011.3 0.4 20.9 26.2 41.2 108.3 104.1 358.6
03/09 23:00 15.8 68 9.15 9.9 24 35 1011.4 0.4 20.7 26.1 40.9 107.4 102.9 354.5
03/09 22:50 15.7 68 9.1 9.8 26 35 1011.6 0.4 20.6 26.1 40.8 107.1 102.4 352.7
03/09 22:40 15.8 67 9.02 9.7 28 37 1011.6 0.4 20.4 25.9 40.4 106.1 101.2 348.6
03/09 22:30 15.5 74 9.78 10.9 24 37 1011.7 0.4 22.0 27.3 43.6 114.7 111.7 385.2
03/09 22:20 15.5 78 10.31 11.7 26 35 1011.8 0.4 23.2 28.1 45.8 120.5 118.9 410.4
03/09 22:10 15.3 78 10.19 11.5 28 37 1012 0.4 22.9 28.0 45.4 119.5 117.6 405.8
03/09 22:00 15.3 77 10.06 11.3 32 41 1012.1 0.4 22.6 27.8 44.9 118.1 115.8 399.6
03/09 21:50 14.9 80 10.2 11.5 26 39 1012.2 0.4 23.0 28.2 45.7 120.3 118.3 408.4
03/09 21:40 14.8 81 10.26 11.6 35 59 1012.1 0.4 23.1 28.3 46.0 121.1 119.3 411.8
03/09 21:30 15.1 75 9.68 10.7 35 50 1012.4 0.4 21.8 27.2 43.5 114.2 111.0 382.7
03/09 21:20 16.1 64 8.77 9.3 37 54 1012.2 0.4 19.8 25.5 39.3 103.1 97.6 336.1
03/09 21:10 16.3 64 8.88 9.5 32 39 1012.1 0.4 20.1 25.6 39.6 104.0 98.8 340.2
03/09 21:00 15.9 71 9.61 10.7 28 44 1012.1 0.4 21.6 26.9 42.7 112.3 108.9 375.4
03/09 20:50 15.3 76 9.92 11.1 20 32 1012.3 0.4 22.3 27.6 44.3 116.6 113.9 393.0
03/09 20:40 14.4 80 9.89 11 20 30 1012.4 0.4 22.3 27.8 44.7 117.6 114.9 396.2
03/09 20:30 14.5 80 9.95 11.1 32 44 1012.8 0.4 22.4 27.9 44.9 118.2 115.6 398.7
03/09 20:20 15.9 69 9.34 10.2 30 41 1012.7 0.4 21.1 26.5 41.7 109.5 105.4 363.1
03/09 20:10 15.9 66 8.94 9.6 30 43 1012.6 0.4 20.2 25.8 40.1 105.2 100.1 344.8
03/09 20:00 15.8 67 9.02 9.7 28 39 1012.7 0.4 20.4 26.0 40.4 106.2 101.3 348.9
03/09 19:50 15.8 63 8.48 8.8 28 35 1012.8 0.4 19.2 25.1 38.3 100.5 94.3 324.5
03/09 19:40 15.9 60 8.13 8.2 26 39 1012.9 0.4 18.5 24.5 36.9 96.8 89.8 308.6
03/09 19:30 15.8 63 8.48 8.8 30 41 1013 0.4 19.2 25.1 38.3 100.6 94.3 324.6
03/09 19:20 15.6 68 9.04 9.7 30 46 1013 0.4 20.4 26.1 40.6 106.7 101.8 350.8
03/09 19:10 14.9 72 9.18 9.9 35 48 1013.1 0.4 20.8 26.5 41.6 109.2 104.6 360.4
03/09 19:00 15.7 66 8.83 9.4 35 50 1013.1 0.4 20.0 25.7 39.8 104.4 99.0 340.8
03/09 18:50 16.3 61 8.46 8.8 32 46 1012.7 0.4 19.2 24.9 38.0 99.7 93.5 321.6
03/09 18:40 15.8 69 9.29 10.1 30 41 1012.7 0.4 21.0 26.4 41.5 109.1 104.8 361.3
03/09 18:30 15.3 76 9.92 11.1 30 41 1012.6 0.4 22.3 27.6 44.3 116.6 114.0 393.1
03/09 18:20 15.4 76 9.99 11.2 32 43 1012.7 0.4 22.5 27.7 44.6 117.2 114.8 395.9
03/09 18:10 15.3 76 9.92 11.1 32 48 1012.7 0.4 22.3 27.6 44.3 116.6 114.0 393.1
03/09 18:00 16.3 68 9.43 10.4 32 46 1012.4 0.4 21.2 26.5 41.8 109.8 106.0 365.3
03/09 17:50 15.9 67 9.07 9.8 30 43 1012.4 0.4 20.5 26.0 40.6 106.6 101.8 350.7
03/09 17:40 15.9 66 8.94 9.6 32 43 1012.5 0.4 20.2 25.8 40.1 105.2 100.1 344.8
03/09 17:30 15.9 67 9.07 9.8 33 44 1012.4 0.4 20.5 26.0 40.6 106.6 101.8 350.7
03/09 17:20 16.1 67 9.18 10 35 46 1012.4 0.4 20.7 26.1 40.9 107.4 103.0 354.8
03/09 17:10 16.7 67 9.52 10.5 35 48 1012.5 0.4 21.4 26.5 42.0 110.2 106.6 367.6
03/09 17:00 16.6 71 10.03 11.3 33 48 1012.5 0.4 22.5 27.4 44.1 115.9 113.5 391.7
03/09 16:50 16.5 68 9.55 10.6 32 46 1012.4 0.4 21.5 26.6 42.2 110.8 107.3 369.9
03/09 16:40 16.3 73 10.13 11.5 30 39 1012.6 0.4 22.7 27.6 44.6 117.4 115.3 398.0
03/09 16:30 16.3 75 10.4 11.9 32 43 1012.9 0.4 23.3 28.1 45.8 120.4 119.0 410.8
03/09 16:20 16.5 72 10.11 11.4 32 44 1012.8 0.4 22.7 27.5 44.5 116.9 114.8 396.1
03/09 16:10 16.8 69 9.86 11.1 32 43 1012.9 0.4 22.1 27.0 43.3 113.8 111.0 382.9
03/09 16:00 16.9 69 9.92 11.2 32 46 1013 0.4 22.2 27.1 43.5 114.3 111.7 385.3
03/09 15:50 17.5 70 10.44 12 28 35 1013.1 0.4 23.3 27.8 45.2 119.0 117.7 406.5
03/09 15:40 16.1 76 10.42 11.9 33 46 1013.2 0.4 23.4 28.2 46.0 121.0 119.6 412.9
03/09 15:30 16.7 66 9.38 10.3 37 44 1013.2 0.4 21.1 26.3 41.4 108.8 104.8 361.4
03/09 15:20 17.3 65 9.58 10.7 33 44 1013.1 0.4 21.5 26.4 41.9 110.1 106.6 367.7
03/09 15:10 17 64 9.26 10.1 30 41 1013.4 0.4 20.8 26.0 40.8 107.2 102.9 354.7
03/09 15:00 17.4 72 10.67 12.3 22 32 1013.4 0.4 23.8 28.2 46.3 121.7 121.0 417.9
03/09 14:50 17.3 78 11.49 13.4 20 28 1013.5 0.4 25.6 29.6 49.8 131.0 132.4 457.8
03/09 14:40 15.4 84 11.04 12.7 24 35 1013.8 0.4 24.7 29.5 49.1 129.2 129.4 447.0
03/09 14:30 16.6 74 10.45 12 20 26 1013.9 0 23.4 28.1 45.8 120.6 119.3 411.9
03/09 14:20 16.2 81 11.17 12.9 20 30 1014.1 0 25.0 29.5 49.1 129.3 129.9 448.9
03/09 14:10 15.6 83 11.04 12.7 24 28 1014.3 0 24.7 29.4 49.0 128.9 129.1 446.0
03/09 14:00 16.3 73 10.13 11.5 24 32 1014.3 0 22.7 27.7 44.7 117.6 115.5 398.5

Last Refresh: 04-Sep-2026 08:15:02

Bureau of Meteorology